createdAt,value
2024-04-22T00:02:21.950Z,3.50
2024-04-22T00:04:51.533Z,3.50
2024-04-22T00:07:19.969Z,3.60
2024-04-22T00:12:16.473Z,4.20
2024-04-22T00:14:45.099Z,4.40
2024-04-22T00:17:13.576Z,6.40
2024-04-22T00:19:42.249Z,4.00
2024-04-22T00:22:10.753Z,3.60
2024-04-22T00:24:39.287Z,2.50
2024-04-22T00:27:07.653Z,2.90
2024-04-22T00:29:36.136Z,3.50
2024-04-22T00:32:05.153Z,2.60
2024-04-22T00:34:33.494Z,3.40
2024-04-22T00:37:01.692Z,3.30
2024-04-22T00:39:30.173Z,4.50
2024-04-22T00:41:58.518Z,2.30
2024-04-22T00:46:55.767Z,3.00
2024-04-22T00:49:24.610Z,2.20
2024-04-22T00:51:54.297Z,3.60
2024-04-22T00:54:23.266Z,4.40
2024-04-22T00:56:53.021Z,2.30
2024-04-22T00:59:21.909Z,2.50
2024-04-22T01:01:50.374Z,2.70
2024-04-22T01:04:19.110Z,2.60
2024-04-22T01:06:47.514Z,3.10
2024-04-22T01:09:15.836Z,1.80
2024-04-22T01:14:12.226Z,3.30
2024-04-22T01:19:08.653Z,2.90
2024-04-22T01:21:36.807Z,2.00
2024-04-22T01:24:05.369Z,1.60
2024-04-22T01:26:34.354Z,2.00
2024-04-22T01:29:02.603Z,2.90
2024-04-22T01:31:31.547Z,3.70
2024-04-22T01:34:00.073Z,2.90
2024-04-22T01:36:28.407Z,3.20
2024-04-22T01:41:24.953Z,3.60
2024-04-22T01:43:53.228Z,2.50
2024-04-22T01:48:49.742Z,1.70
2024-04-22T01:51:17.864Z,2.80
2024-04-22T01:53:46.197Z,2.20
2024-04-22T01:58:42.537Z,2.10
2024-04-22T02:03:39.285Z,1.50
2024-04-22T02:06:07.930Z,1.80
2024-04-22T02:08:36.284Z,1.60
2024-04-22T02:13:33.078Z,2.60
2024-04-22T02:16:01.356Z,2.20
2024-04-22T02:18:29.705Z,2.00
2024-04-22T02:20:58.034Z,2.60
2024-04-22T02:23:26.840Z,1.60
2024-04-22T02:25:55.117Z,1.50
2024-04-22T02:28:23.526Z,1.60
2024-04-22T02:30:52.020Z,2.60
2024-04-22T02:33:20.401Z,1.90
2024-04-22T02:35:49.364Z,2.20
2024-04-22T02:38:18.453Z,2.50
2024-04-22T02:40:46.751Z,1.90
2024-04-22T02:43:15.200Z,2.20
2024-04-22T02:45:44.130Z,2.60
2024-04-22T02:48:12.372Z,3.50
2024-04-22T02:50:40.749Z,4.20
2024-04-22T02:55:37.062Z,2.50
2024-04-22T02:58:06.257Z,2.70
2024-04-22T03:00:34.748Z,1.90
2024-04-22T03:03:03.266Z,2.40
2024-04-22T03:05:31.875Z,2.00
2024-04-22T03:08:00.563Z,1.70
2024-04-22T03:10:28.962Z,2.30
2024-04-22T03:12:57.371Z,2.50
2024-04-22T03:15:25.526Z,2.70
2024-04-22T03:17:54.444Z,2.00
2024-04-22T03:20:24.546Z,4.10
2024-04-22T03:22:53.085Z,3.10
2024-04-22T03:25:21.654Z,4.00
2024-04-22T03:27:50.157Z,2.70
2024-04-22T03:32:46.910Z,2.00
2024-04-22T03:35:15.478Z,2.30
2024-04-22T03:37:43.991Z,2.00
2024-04-22T03:40:12.589Z,2.80
2024-04-22T03:42:40.894Z,3.50
2024-04-22T03:47:56.201Z,2.20
2024-04-22T03:50:24.328Z,1.90
2024-04-22T03:52:53.571Z,3.10
2024-04-22T03:55:21.860Z,5.80
2024-04-22T03:57:51.255Z,4.10
2024-04-22T04:00:19.939Z,4.20
2024-04-22T04:02:48.252Z,4.40
2024-04-22T04:05:18.275Z,4.20
2024-04-22T04:07:48.261Z,5.10
2024-04-22T04:10:16.930Z,4.50
2024-04-22T04:12:45.251Z,3.90
2024-04-22T04:15:13.840Z,3.60
2024-04-22T04:17:42.580Z,4.70
2024-04-22T04:20:11.401Z,2.60
2024-04-22T04:22:39.499Z,4.50
2024-04-22T04:25:08.076Z,3.60
2024-04-22T04:27:36.309Z,4.10
2024-04-22T04:30:05.452Z,5.90
2024-04-22T04:32:34.550Z,3.60
2024-04-22T04:35:06.695Z,3.70
2024-04-22T04:37:36.521Z,3.10
2024-04-22T04:40:05.141Z,4.00
2024-04-22T04:42:33.312Z,3.00
2024-04-22T04:45:01.832Z,2.50
2024-04-22T04:47:30.024Z,4.80
2024-04-22T04:49:59.240Z,3.40
2024-04-22T04:52:28.210Z,4.00
2024-04-22T04:54:56.909Z,4.30
2024-04-22T04:59:53.630Z,4.50
2024-04-22T05:04:52.222Z,4.70
2024-04-22T05:07:20.709Z,4.90
2024-04-22T05:09:56.736Z,4.20
2024-04-22T05:12:31.842Z,5.30
2024-04-22T05:15:03.716Z,6.80
2024-04-22T05:17:32.276Z,6.20
2024-04-22T05:20:00.676Z,2.70
2024-04-22T05:22:34.282Z,3.10
2024-04-22T05:25:04.521Z,5.00
2024-04-22T05:27:34.422Z,7.70
2024-04-22T05:30:04.302Z,4.40
2024-04-22T05:32:34.753Z,4.50
2024-04-22T05:35:36.616Z,6.10
2024-04-22T05:38:05.130Z,5.00
2024-04-22T05:40:34.052Z,4.80
2024-04-22T05:43:02.175Z,4.30
2024-04-22T05:45:31.340Z,3.70
2024-04-22T05:48:00.818Z,5.60
2024-04-22T05:50:29.589Z,6.30
2024-04-22T05:52:58.506Z,5.30
2024-04-22T05:55:36.832Z,3.40
2024-04-22T05:58:24.982Z,3.60
2024-04-22T06:00:59.688Z,4.80
2024-04-22T06:03:29.301Z,3.80
2024-04-22T06:05:57.654Z,3.90
2024-04-22T06:08:26.308Z,3.00
2024-04-22T06:10:56.190Z,4.40
2024-04-22T06:13:27.252Z,4.40
2024-04-22T06:15:58.715Z,4.70
2024-04-22T06:18:27.669Z,2.80
2024-04-22T06:20:57.526Z,6.40
2024-04-22T06:23:37.791Z,3.80
2024-04-22T06:26:09.822Z,5.30
2024-04-22T06:28:38.802Z,8.30
2024-04-22T06:31:11.344Z,3.70
2024-04-22T06:33:43.996Z,6.60
2024-04-22T06:36:15.318Z,3.70
2024-04-22T06:38:50.390Z,3.30
2024-04-22T06:41:22.779Z,5.40
2024-04-22T06:43:57.831Z,4.30
2024-04-22T06:46:30.157Z,5.60
2024-04-22T06:49:12.557Z,3.20
2024-04-22T06:51:44.692Z,4.60
2024-04-22T06:54:22.193Z,4.40
2024-04-22T06:56:51.167Z,4.20
2024-04-22T06:59:21.110Z,2.80
2024-04-22T07:01:56.944Z,3.60
2024-04-22T07:04:30.751Z,3.50
2024-04-22T07:07:00.090Z,3.40
2024-04-22T07:09:31.219Z,2.40
2024-04-22T07:12:00.498Z,1.10
2024-04-22T07:14:30.688Z,1.60
2024-04-22T07:16:59.455Z,0.80
2024-04-22T07:19:30.182Z,1.70
2024-04-22T07:22:02.906Z,2.30
2024-04-22T07:24:31.914Z,3.40
2024-04-22T07:27:10.983Z,1.50
2024-04-22T07:29:54.095Z,1.80
2024-04-22T07:32:24.585Z,1.80
2024-04-22T07:34:54.205Z,2.00
2024-04-22T07:37:31.858Z,2.20
2024-04-22T07:40:15.705Z,1.80
2024-04-22T07:42:48.048Z,2.20
2024-04-22T07:45:23.596Z,2.40
2024-04-22T07:47:55.522Z,4.00
2024-04-22T07:50:24.700Z,2.10
2024-04-22T07:52:54.419Z,2.00
2024-04-22T07:55:26.817Z,3.10
2024-04-22T07:58:02.014Z,2.20
2024-04-22T08:00:34.951Z,2.70
2024-04-22T08:03:07.681Z,2.50
2024-04-22T08:05:37.342Z,3.70
2024-04-22T08:08:16.317Z,2.40
2024-04-22T08:10:53.881Z,2.80
2024-04-22T08:13:24.822Z,2.00
2024-04-22T08:15:55.264Z,1.80
2024-04-22T08:18:24.180Z,1.90
2024-04-22T08:21:00.440Z,1.10
2024-04-22T08:32:32.419Z,2.10
2024-04-22T08:35:12.381Z,2.00
2024-04-22T08:37:48.565Z,1.30
2024-04-22T08:40:26.564Z,1.60
2024-04-22T08:43:01.893Z,1.60
2024-04-22T08:45:31.636Z,3.50
2024-04-22T08:48:00.631Z,5.20
2024-04-22T08:50:31.632Z,5.10
2024-04-22T08:53:04.636Z,4.80
2024-04-22T08:55:33.649Z,3.90
2024-04-22T08:58:05.327Z,3.00
2024-04-22T09:00:34.649Z,2.30
2024-04-22T09:03:05.589Z,2.60
2024-04-22T09:05:37.448Z,2.60
2024-04-22T09:08:08.458Z,3.10
2024-04-22T09:11:11.832Z,2.30
2024-04-22T09:13:30.194Z,2.00
2024-04-22T09:15:59.621Z,1.40
2024-04-22T09:18:29.654Z,1.70
2024-04-22T09:21:07.636Z,1.10
2024-04-22T09:23:40.362Z,1.20
2024-04-22T09:26:09.610Z,0.80
2024-04-22T09:28:39.616Z,1.30
2024-04-22T09:31:10.126Z,1.00
2024-04-22T09:33:38.754Z,1.10
2024-04-22T09:36:07.609Z,1.10
2024-04-22T09:38:46.137Z,1.40
2024-04-22T09:41:21.039Z,1.50
2024-04-22T09:43:57.093Z,1.10
2024-04-22T09:46:32.664Z,1.30
2024-04-22T09:49:03.523Z,1.70
2024-04-22T09:51:35.713Z,1.50
2024-04-22T09:54:05.114Z,1.10
2024-04-22T09:56:37.122Z,0.90
2024-04-22T09:59:07.961Z,1.20
2024-04-22T10:01:37.032Z,0.90
2024-04-22T10:04:06.165Z,0.60
2024-04-22T10:06:34.732Z,0.80
2024-04-22T10:09:03.458Z,1.10
2024-04-22T10:11:33.774Z,0.70
2024-04-22T10:14:15.182Z,1.20
2024-04-22T10:17:05.730Z,0.80
2024-04-22T10:19:37.882Z,2.00
2024-04-22T10:22:09.606Z,0.90
2024-04-22T10:24:39.960Z,0.70
2024-04-22T10:27:12.724Z,1.40
2024-04-22T10:29:43.783Z,1.00
2024-04-22T10:32:12.184Z,0.90
2024-04-22T10:34:44.826Z,0.90
2024-04-22T10:37:14.558Z,1.00
2024-04-22T10:39:46.728Z,1.60
2024-04-22T10:42:19.208Z,1.70
2024-04-22T10:44:48.318Z,0.70
2024-04-22T10:47:16.945Z,0.90
2024-04-22T10:49:47.739Z,0.70
2024-04-22T10:52:16.223Z,1.10
2024-04-22T10:54:46.183Z,0.70
2024-04-22T10:57:15.437Z,0.90
2024-04-22T10:59:43.910Z,0.80
2024-04-22T11:02:12.502Z,0.50
2024-04-22T11:04:42.246Z,0.60
2024-04-22T11:07:10.786Z,0.70
2024-04-22T11:09:39.577Z,0.60
2024-04-22T11:12:08.388Z,0.40
2024-04-22T11:14:37.064Z,1.10
2024-04-22T11:17:05.652Z,0.70
2024-04-22T11:19:34.003Z,0.60
2024-04-22T11:22:03.296Z,3.70
2024-04-22T11:24:31.862Z,0.50
2024-04-22T11:27:00.358Z,0.50
2024-04-22T11:29:29.416Z,0.60
2024-04-22T11:31:58.998Z,0.60
2024-04-22T11:34:27.668Z,0.50
2024-04-22T11:37:00.409Z,0.60
2024-04-22T11:39:32.036Z,3.40
2024-04-22T11:42:01.368Z,1.20
2024-04-22T11:44:29.729Z,0.70
2024-04-22T11:46:58.851Z,1.40
2024-04-22T11:49:27.246Z,0.60
2024-04-22T11:51:55.566Z,1.10
2024-04-22T11:54:23.924Z,1.70
2024-04-22T11:59:22.072Z,0.60
2024-04-22T12:04:19.291Z,0.50
2024-04-22T12:06:48.393Z,0.80
2024-04-22T12:09:16.697Z,0.40
2024-04-22T12:11:45.549Z,0.60
2024-04-22T12:14:14.694Z,0.50
2024-04-22T12:16:43.345Z,0.60
2024-04-22T12:19:12.406Z,1.00
2024-04-22T12:21:40.872Z,0.40
2024-04-22T12:24:09.485Z,0.70
2024-04-22T12:26:37.819Z,0.60
2024-04-22T12:29:06.747Z,0.50
2024-04-22T12:31:36.199Z,0.60
2024-04-22T12:34:12.269Z,0.80
2024-04-22T12:36:42.502Z,0.70
2024-04-22T12:39:10.619Z,0.50
2024-04-22T12:41:39.866Z,1.40
2024-04-22T12:44:08.139Z,0.80
2024-04-22T12:46:56.801Z,1.00
2024-04-22T12:49:44.338Z,0.80
2024-04-22T12:52:15.038Z,0.50
2024-04-22T12:54:43.915Z,0.90
2024-04-22T12:57:12.475Z,1.10
2024-04-22T12:59:41.370Z,1.30
2024-04-22T13:02:13.810Z,0.50
2024-04-22T13:04:42.439Z,0.70
2024-04-22T13:07:10.880Z,0.70
2024-04-22T13:09:39.462Z,0.40
2024-04-22T13:12:08.215Z,0.80
2024-04-22T13:14:36.297Z,0.60
2024-04-22T13:17:05.073Z,0.70
2024-04-22T13:19:33.611Z,0.70
2024-04-22T13:22:01.613Z,0.70
2024-04-22T13:26:57.573Z,0.60
2024-04-22T13:29:26.021Z,0.90
2024-04-22T13:31:55.402Z,1.00
2024-04-22T13:34:23.642Z,1.10
2024-04-22T13:36:52.193Z,0.70
2024-04-22T13:39:20.828Z,0.90
2024-04-22T13:41:49.630Z,1.00
2024-04-22T13:44:19.372Z,1.00
2024-04-22T13:46:48.021Z,3.40
2024-04-22T13:49:16.631Z,1.60
2024-04-22T13:51:46.435Z,0.50
2024-04-22T13:54:14.718Z,1.50
2024-04-22T13:56:42.899Z,0.60
2024-04-22T13:59:11.516Z,1.00
2024-04-22T14:01:40.318Z,0.70
2024-04-22T14:04:09.008Z,1.00
2024-04-22T14:06:37.848Z,0.70
2024-04-22T14:09:07.548Z,0.90
2024-04-22T14:11:37.566Z,1.10
2024-04-22T14:14:06.110Z,1.20
2024-04-22T14:16:34.632Z,1.00
2024-04-22T14:19:03.080Z,2.00
2024-04-22T14:21:31.199Z,1.40
2024-04-22T14:23:59.833Z,1.50
2024-04-22T14:26:28.018Z,1.80
2024-04-22T14:28:56.331Z,1.60
2024-04-22T14:31:24.531Z,1.10
2024-04-22T14:33:54.286Z,1.10
2024-04-22T14:36:24.634Z,1.50
2024-04-22T14:38:53.197Z,1.20
2024-04-22T14:41:21.781Z,2.50
2024-04-22T14:43:50.534Z,1.20
2024-04-22T14:46:20.924Z,1.60
2024-04-22T14:48:49.149Z,0.80
2024-04-22T14:51:17.800Z,1.10
2024-04-22T14:53:46.465Z,1.50
2024-04-22T14:56:14.681Z,0.90
2024-04-22T14:58:43.068Z,1.40
2024-04-22T15:01:11.526Z,1.40
2024-04-22T15:03:40.114Z,1.20
2024-04-22T15:06:08.643Z,0.90
2024-04-22T15:08:37.242Z,1.80
2024-04-22T15:11:07.858Z,1.20
2024-04-22T15:13:36.568Z,1.20
2024-04-22T15:16:05.256Z,1.60
2024-04-22T15:18:34.475Z,0.90
2024-04-22T15:21:02.886Z,1.30
2024-04-22T15:23:31.076Z,1.60
2024-04-22T15:25:59.369Z,1.50
2024-04-22T15:28:27.776Z,1.10
2024-04-22T15:30:56.045Z,1.80
2024-04-22T15:33:24.121Z,1.10
2024-04-22T15:35:52.370Z,1.50
2024-04-22T15:40:49.128Z,2.50
2024-04-22T15:43:17.616Z,2.60
2024-04-22T15:45:45.660Z,1.40
2024-04-22T15:48:21.206Z,0.70
2024-04-22T15:50:53.640Z,2.10
2024-04-22T15:53:21.896Z,0.60
2024-04-22T15:55:58.620Z,1.20
2024-04-22T15:58:27.437Z,1.40
2024-04-22T16:00:55.938Z,2.40
2024-04-22T16:03:24.118Z,2.80
2024-04-22T16:05:52.774Z,1.90
2024-04-22T16:08:20.872Z,1.90
2024-04-22T16:10:49.566Z,1.00
2024-04-22T16:13:18.162Z,3.60
2024-04-22T16:15:47.238Z,1.20
2024-04-22T16:18:15.677Z,1.10
2024-04-22T16:20:49.733Z,1.80
2024-04-22T16:23:21.843Z,1.10
2024-04-22T16:25:50.140Z,0.80
2024-04-22T16:28:18.576Z,1.00
2024-04-22T16:30:47.301Z,1.30
2024-04-22T16:33:15.924Z,0.50
2024-04-22T16:35:44.216Z,1.80
2024-04-22T16:38:12.330Z,1.30
2024-04-22T16:40:40.859Z,1.20
2024-04-22T16:43:09.242Z,0.60
2024-04-22T16:45:37.582Z,1.50
2024-04-22T16:48:06.592Z,1.00
2024-04-22T16:50:36.278Z,1.40
2024-04-22T16:53:05.229Z,0.90
2024-04-22T16:55:33.750Z,0.60
2024-04-22T16:58:02.185Z,0.70
2024-04-22T17:00:31.244Z,0.70
2024-04-22T17:02:59.484Z,0.90
2024-04-22T17:05:28.018Z,0.80
2024-04-22T17:10:25.515Z,1.00
2024-04-22T17:12:56.591Z,1.00
2024-04-22T17:15:25.540Z,1.40
2024-04-22T17:17:54.207Z,1.10
2024-04-22T17:20:22.553Z,1.70
2024-04-22T17:22:52.549Z,1.90
2024-04-22T17:25:20.838Z,0.90
2024-04-22T17:27:49.399Z,1.30
2024-04-22T17:30:17.528Z,1.00
2024-04-22T17:32:46.045Z,1.00
2024-04-22T17:35:14.730Z,1.00
2024-04-22T17:37:43.402Z,0.70
2024-04-22T17:40:12.067Z,0.90
2024-04-22T17:42:40.568Z,2.70
2024-04-22T17:45:09.887Z,2.80
2024-04-22T17:47:38.626Z,1.40
2024-04-22T17:50:06.983Z,2.10
2024-04-22T17:52:35.665Z,1.80
2024-04-22T17:55:04.437Z,3.20
2024-04-22T17:57:32.546Z,1.70
2024-04-22T18:00:00.809Z,1.60
2024-04-22T18:02:29.370Z,1.60
2024-04-22T18:04:57.613Z,1.60
2024-04-22T18:09:55.361Z,2.70
2024-04-22T18:12:24.082Z,2.00
2024-04-22T18:14:52.437Z,1.60
2024-04-22T18:19:48.799Z,3.20
2024-04-22T18:22:21.005Z,3.00
2024-04-22T18:24:50.162Z,2.00
2024-04-22T18:27:18.427Z,3.80
2024-04-22T18:32:14.631Z,2.90
2024-04-22T18:34:43.028Z,3.30
2024-04-22T18:37:11.674Z,2.30
2024-04-22T18:39:40.226Z,3.30
2024-04-22T18:42:08.491Z,5.40
2024-04-22T18:47:05.007Z,4.10
2024-04-22T18:49:33.414Z,3.70
2024-04-22T18:54:32.648Z,2.60
2024-04-22T18:57:03.637Z,3.60
2024-04-22T18:59:31.823Z,4.30
2024-04-22T19:02:04.022Z,2.60
2024-04-22T19:04:33.271Z,2.80
2024-04-22T19:07:01.788Z,3.40
2024-04-22T19:09:29.981Z,3.00
2024-04-22T19:11:58.501Z,2.60
2024-04-22T19:14:26.529Z,2.60
2024-04-22T19:16:54.795Z,2.50
2024-04-22T19:19:25.068Z,3.40
2024-04-22T19:21:53.723Z,2.30
2024-04-22T19:24:22.102Z,2.00
2024-04-22T19:26:50.377Z,1.70
2024-04-22T19:29:18.432Z,1.20
2024-04-22T19:31:47.356Z,1.30
2024-04-22T19:34:16.055Z,1.50
2024-04-22T19:36:44.365Z,2.40
2024-04-22T19:41:45.182Z,2.30
2024-04-22T19:44:14.271Z,1.90
2024-04-22T19:46:42.658Z,2.00
2024-04-22T19:49:11.093Z,3.40
2024-04-22T19:51:39.298Z,3.30
2024-04-22T19:56:35.703Z,2.10
2024-04-22T19:59:04.014Z,1.70
2024-04-22T20:01:32.288Z,2.80
2024-04-22T20:04:02.547Z,3.50
2024-04-22T20:06:31.135Z,2.30
2024-04-22T20:08:59.422Z,1.90
2024-04-22T20:11:28.377Z,4.40
2024-04-22T20:16:45.235Z,2.70
2024-04-22T20:19:18.452Z,2.00
2024-04-22T20:21:46.870Z,2.60
2024-04-22T20:24:18.896Z,6.00
2024-04-22T20:26:47.351Z,3.00
2024-04-22T20:29:15.886Z,3.60
2024-04-22T20:31:44.771Z,6.00
2024-04-22T20:34:13.158Z,2.00
2024-04-22T20:39:09.367Z,4.50
2024-04-22T20:41:37.726Z,3.00
2024-04-22T20:44:06.485Z,2.90
2024-04-22T20:46:35.135Z,3.90
2024-04-22T20:49:03.306Z,2.70
2024-04-22T20:51:34.262Z,4.10
2024-04-22T20:54:02.452Z,4.10
2024-04-22T20:56:30.505Z,3.40
2024-04-22T20:58:58.873Z,2.40
2024-04-22T21:01:27.235Z,1.90
2024-04-22T21:03:55.409Z,3.40
2024-04-22T21:06:23.492Z,3.20
2024-04-22T21:08:52.093Z,2.20
2024-04-22T21:14:03.535Z,4.30
2024-04-22T21:16:31.733Z,4.10
2024-04-22T21:24:11.220Z,3.30
2024-04-22T21:26:39.648Z,2.50
2024-04-22T21:29:07.698Z,2.50
2024-04-22T21:31:35.916Z,4.10
2024-04-22T21:36:37.975Z,3.10
2024-04-22T21:39:06.185Z,2.20
2024-04-22T21:41:34.436Z,3.70
2024-04-22T21:46:30.964Z,1.80
2024-04-22T21:48:59.492Z,2.80
2024-04-22T21:51:27.759Z,2.80
2024-04-22T21:56:23.669Z,3.40
2024-04-22T21:59:29.633Z,3.40
2024-04-22T22:02:35.173Z,3.60
2024-04-22T22:05:41.151Z,4.10
2024-04-22T22:08:10.618Z,3.10
2024-04-22T22:10:40.004Z,3.70
2024-04-22T22:13:08.382Z,3.50
2024-04-22T22:15:36.948Z,3.00
2024-04-22T22:18:06.037Z,3.60
2024-04-22T22:20:34.591Z,3.90
2024-04-22T22:23:03.093Z,2.80
2024-04-22T22:25:31.728Z,3.70
2024-04-22T22:28:00.521Z,3.20
2024-04-22T22:30:28.698Z,2.20
2024-04-22T22:32:57.637Z,4.20
2024-04-22T22:35:26.285Z,3.90
2024-04-22T22:37:54.535Z,2.90
2024-04-22T22:42:50.960Z,2.80
2024-04-22T22:45:19.180Z,4.40
2024-04-22T22:47:47.576Z,2.30
2024-04-22T22:50:15.875Z,2.90
2024-04-22T22:52:44.212Z,2.50
2024-04-22T22:57:41.117Z,2.70
2024-04-22T23:00:09.869Z,3.10
2024-04-22T23:02:38.283Z,3.40
2024-04-22T23:05:06.658Z,3.10
2024-04-22T23:07:34.858Z,4.40
2024-04-22T23:10:03.292Z,3.10
2024-04-22T23:12:31.472Z,2.50
2024-04-22T23:14:59.826Z,1.50
2024-04-22T23:19:56.190Z,3.30
2024-04-22T23:24:52.349Z,3.50
2024-04-22T23:29:49.192Z,3.20
2024-04-22T23:32:17.748Z,3.90
2024-04-22T23:34:46.025Z,3.90
2024-04-22T23:37:14.557Z,3.50
2024-04-22T23:39:42.756Z,2.50
2024-04-22T23:42:11.150Z,4.30
2024-04-22T23:44:39.636Z,3.10
2024-04-22T23:49:35.984Z,4.70
2024-04-22T23:52:05.852Z,4.00
2024-04-22T23:54:33.998Z,2.60
2024-04-22T23:57:03.728Z,2.70
2024-04-22T23:59:32.372Z,4.20
